createdAt,value
2022-08-29T00:03:05.165Z,24.44
2022-08-29T00:07:56.960Z,24.36
2022-08-29T00:12:49.291Z,24.35
2022-08-29T00:17:41.656Z,24.32
2022-08-29T00:22:34.250Z,24.31
2022-08-29T00:27:26.670Z,24.27
2022-08-29T00:32:19.333Z,24.26
2022-08-29T00:37:11.963Z,24.27
2022-08-29T00:42:04.712Z,24.23
2022-08-29T00:46:57.189Z,24.18
2022-08-29T00:51:49.778Z,24.17
2022-08-29T00:56:42.308Z,24.16
2022-08-29T01:01:35.190Z,24.13
2022-08-29T01:06:27.349Z,24.07
2022-08-29T01:11:19.750Z,24.03
2022-08-29T01:16:12.304Z,24.05
2022-08-29T01:21:04.629Z,24.07
2022-08-29T01:25:57.254Z,24.02
2022-08-29T01:30:49.773Z,23.99
2022-08-29T01:35:42.194Z,23.95
2022-08-29T01:40:34.980Z,23.9
2022-08-29T01:45:27.730Z,23.96
2022-08-29T01:50:20.414Z,23.93
2022-08-29T01:55:13.108Z,23.95
2022-08-29T02:00:05.758Z,23.88
2022-08-29T02:04:58.271Z,23.84
2022-08-29T02:09:50.354Z,23.83
2022-08-29T02:14:42.745Z,23.77
2022-08-29T02:19:35.644Z,23.81
2022-08-29T02:24:27.663Z,23.73
2022-08-29T02:29:20.036Z,23.72
2022-08-29T02:34:12.522Z,23.71
2022-08-29T02:39:04.907Z,23.63
2022-08-29T02:43:57.678Z,23.61
2022-08-29T02:48:54.139Z,23.62
2022-08-29T02:53:42.662Z,23.58
2022-08-29T02:58:35.217Z,23.54
2022-08-29T03:03:27.532Z,23.54
2022-08-29T03:08:20.130Z,23.52
2022-08-29T03:13:12.777Z,23.51
2022-08-29T03:18:05.210Z,23.47
2022-08-29T03:22:57.916Z,23.46
2022-08-29T03:27:50.510Z,23.44
2022-08-29T03:32:42.922Z,23.46
2022-08-29T03:37:35.336Z,23.42
2022-08-29T03:42:28.013Z,23.44
2022-08-29T03:47:20.351Z,23.38
2022-08-29T03:52:12.929Z,23.4
2022-08-29T03:57:05.456Z,23.31
2022-08-29T04:01:57.897Z,23.35
2022-08-29T04:06:50.125Z,23.3
2022-08-29T04:11:42.408Z,23.26
2022-08-29T04:16:34.910Z,23.24
2022-08-29T04:21:27.551Z,23.22
2022-08-29T04:26:36.279Z,23.2
2022-08-29T04:31:12.687Z,23.19
2022-08-29T04:36:05.168Z,23.14
2022-08-29T04:40:57.689Z,23.17
2022-08-29T04:45:50.663Z,23.19
2022-08-29T04:50:43.149Z,23.11
2022-08-29T04:55:35.535Z,23.08
2022-08-29T05:00:27.997Z,23.03
2022-08-29T05:05:20.321Z,22.94
2022-08-29T05:10:12.896Z,23.13
2022-08-29T05:15:05.603Z,23.19
2022-08-29T05:19:57.886Z,22.81
2022-08-29T05:24:49.953Z,22.68
2022-08-29T05:29:41.795Z,21.92
2022-08-29T05:34:35.248Z,22.19
2022-08-29T05:39:26.368Z,22.43
2022-08-29T05:44:19.041Z,22.54
2022-08-29T05:49:11.367Z,22.18
2022-08-29T05:54:04.385Z,22.7
2022-08-29T05:58:57.009Z,22.83
2022-08-29T06:03:49.865Z,22.9
2022-08-29T06:08:42.508Z,22.9
2022-08-29T06:13:34.998Z,22.92
2022-08-29T06:18:29.861Z,22.94
2022-08-29T06:23:20.104Z,22.94
2022-08-29T06:28:12.699Z,22.94
2022-08-29T06:33:05.270Z,22.94
2022-08-29T06:37:57.496Z,22.91
2022-08-29T06:42:49.994Z,22.95
2022-08-29T06:47:42.700Z,22.98
2022-08-29T06:52:35.671Z,22.98
2022-08-29T06:57:27.891Z,23.01
2022-08-29T07:02:20.627Z,23.03
2022-08-29T07:07:15.279Z,23.02
2022-08-29T07:12:07.733Z,23.01
2022-08-29T07:17:00.294Z,23.01
2022-08-29T07:21:53.103Z,23.04
2022-08-29T07:26:45.548Z,23.07
2022-08-29T07:31:38.138Z,23.12
2022-08-29T07:36:31.213Z,23.12
2022-08-29T07:41:24.064Z,23.15
2022-08-29T07:46:16.879Z,23.17
2022-08-29T07:51:10.562Z,23.19
2022-08-29T07:56:02.547Z,23.23
2022-08-29T08:00:55.429Z,23.23
2022-08-29T08:05:47.982Z,23.26
2022-08-29T08:10:41.117Z,23.28
2022-08-29T08:15:33.843Z,23.29
2022-08-29T08:20:26.423Z,23.32
2022-08-29T08:25:19.122Z,23.35
2022-08-29T08:30:11.884Z,23.38
2022-08-29T08:35:04.409Z,23.43
2022-08-29T08:39:56.962Z,23.47
2022-08-29T08:44:49.652Z,23.49
2022-08-29T08:49:42.475Z,23.55
2022-08-29T08:54:34.930Z,23.6
2022-08-29T08:59:27.455Z,23.64
2022-08-29T09:04:20.003Z,23.64
2022-08-29T09:09:12.741Z,23.7
2022-08-29T09:14:05.237Z,23.72
2022-08-29T09:18:57.804Z,23.73
2022-08-29T09:23:50.445Z,23.77
2022-08-29T09:28:43.114Z,23.8
2022-08-29T09:33:35.704Z,23.82
2022-08-29T09:38:28.285Z,23.86
2022-08-29T09:43:20.903Z,23.89
2022-08-29T09:48:13.484Z,23.87
2022-08-29T09:53:10.037Z,23.92
2022-08-29T09:57:58.691Z,23.96
2022-08-29T10:02:51.280Z,23.97
2022-08-29T10:07:43.957Z,24
2022-08-29T10:12:36.538Z,24.04
2022-08-29T10:17:28.707Z,24.06
2022-08-29T10:27:13.883Z,24.12
2022-08-29T10:32:06.332Z,24.13
2022-08-29T10:36:58.909Z,24.16
2022-08-29T10:41:51.631Z,24.18
2022-08-29T10:46:43.840Z,24.19
2022-08-29T10:51:36.480Z,24.19
2022-08-29T10:56:28.787Z,24.25
2022-08-29T11:01:21.371Z,24.29
2022-08-29T11:06:14.167Z,24.35
2022-08-29T11:11:06.854Z,24.38
2022-08-29T11:15:59.659Z,24.42
2022-08-29T11:20:52.507Z,24.49
2022-08-29T11:25:45.199Z,24.49
2022-08-29T11:30:40.398Z,24.54
2022-08-29T11:35:29.616Z,24.58
2022-08-29T11:40:47.065Z,24.59
2022-08-29T11:45:14.904Z,24.61
2022-08-29T11:50:07.293Z,24.63
2022-08-29T11:54:59.880Z,24.65
2022-08-29T11:59:52.772Z,24.7
2022-08-29T12:04:45.433Z,24.75
2022-08-29T12:09:38.141Z,24.78
2022-08-29T12:14:33.230Z,24.78
2022-08-29T12:19:23.357Z,24.84
2022-08-29T12:24:15.967Z,24.89
2022-08-29T12:29:10.355Z,24.9
2022-08-29T12:34:01.249Z,24.93
2022-08-29T12:38:54.155Z,24.99
2022-08-29T12:43:46.968Z,24.96
2022-08-29T12:48:39.508Z,24.94
2022-08-29T12:53:32.168Z,25.02
2022-08-29T12:58:24.769Z,25.07
2022-08-29T13:03:17.453Z,25.13
2022-08-29T13:08:12.436Z,25.21
2022-08-29T13:13:02.437Z,25.28
2022-08-29T13:17:55.140Z,25.37
2022-08-29T13:22:47.752Z,25.45
2022-08-29T13:27:40.641Z,25.51
2022-08-29T13:32:33.694Z,25.54
2022-08-29T13:37:26.319Z,25.52
2022-08-29T13:42:18.915Z,25.49
2022-08-29T13:47:11.537Z,25.49
2022-08-29T13:52:06.257Z,25.52
2022-08-29T13:56:58.629Z,25.55
2022-08-29T14:02:17.076Z,25.54
2022-08-29T14:06:43.770Z,25.53
2022-08-29T14:11:36.696Z,25.54
2022-08-29T14:16:29.459Z,25.56
2022-08-29T14:21:22.020Z,25.59
2022-08-29T14:26:14.717Z,25.61
2022-08-29T14:31:07.556Z,25.6
2022-08-29T14:36:00.128Z,25.63
2022-08-29T14:40:52.760Z,25.64
2022-08-29T14:45:45.494Z,25.67
2022-08-29T14:50:37.970Z,25.67
2022-08-29T14:55:30.668Z,25.81
2022-08-29T15:00:23.201Z,25.81
2022-08-29T15:05:15.852Z,25.83
2022-08-29T15:10:08.331Z,25.89
2022-08-29T15:15:00.685Z,25.87
2022-08-29T15:20:33.945Z,25.94
2022-08-29T15:24:46.160Z,26.03
2022-08-29T15:29:38.757Z,26.02
2022-08-29T15:34:31.622Z,26.06
2022-08-29T15:39:24.474Z,26.15
2022-08-29T15:44:16.980Z,26.08
2022-08-29T15:49:09.518Z,26.14
2022-08-29T15:54:02.298Z,26.27
2022-08-29T15:58:54.805Z,26.4
2022-08-29T16:03:47.472Z,26.49
2022-08-29T16:08:39.941Z,26.44
2022-08-29T16:13:32.911Z,26.63
2022-08-29T16:18:25.040Z,26.54
2022-08-29T16:23:17.874Z,26.47
2022-08-29T16:28:10.400Z,26.49
2022-08-29T16:33:03.249Z,26.49
2022-08-29T16:38:02.947Z,26.57
2022-08-29T16:42:55.202Z,26.69
2022-08-29T16:47:40.935Z,26.55
2022-08-29T16:52:33.418Z,26.57
2022-08-29T16:57:25.967Z,26.64
2022-08-29T17:02:18.649Z,26.59
2022-08-29T17:07:11.283Z,26.53
2022-08-29T17:12:03.733Z,26.29
2022-08-29T17:16:55.990Z,26.19
2022-08-29T17:21:49.101Z,26.49
2022-08-29T17:26:41.873Z,26.61
2022-08-29T17:31:38.388Z,26.48
2022-08-29T17:36:26.938Z,26.45
2022-08-29T17:41:19.426Z,26.53
2022-08-29T17:46:12.096Z,26.44
2022-08-29T17:51:04.109Z,26.4
2022-08-29T17:55:56.473Z,26.37
2022-08-29T18:00:49.089Z,26.31
2022-08-29T18:05:44.253Z,26.27
2022-08-29T18:10:36.323Z,26.18
2022-08-29T18:15:29.169Z,26.21
2022-08-29T18:20:21.965Z,26.11
2022-08-29T18:25:14.371Z,26.19
2022-08-29T18:30:06.946Z,26.2
2022-08-29T18:35:00.873Z,26.13
2022-08-29T18:39:51.580Z,26.07
2022-08-29T18:44:44.108Z,25.94
2022-08-29T18:49:36.689Z,26.02
2022-08-29T18:54:28.801Z,26.02
2022-08-29T18:59:21.241Z,25.96
2022-08-29T19:04:13.885Z,25.94
2022-08-29T19:09:06.311Z,25.9
2022-08-29T19:13:58.920Z,25.85
2022-08-29T19:18:51.319Z,25.79
2022-08-29T19:23:43.571Z,25.69
2022-08-29T19:28:36.229Z,25.75
2022-08-29T19:33:28.783Z,25.72
2022-08-29T19:38:21.557Z,25.72
2022-08-29T19:43:14.528Z,25.69
2022-08-29T19:48:07.048Z,25.64
2022-08-29T19:53:00.034Z,25.6
2022-08-29T19:57:52.837Z,25.56
2022-08-29T20:02:45.385Z,25.52
2022-08-29T20:07:37.649Z,25.44
2022-08-29T20:12:30.330Z,25.47
2022-08-29T20:17:23.090Z,25.43
2022-08-29T20:22:15.705Z,25.41
2022-08-29T20:27:08.406Z,25.32
2022-08-29T20:32:01.217Z,25.33
2022-08-29T20:36:53.638Z,25.32
2022-08-29T20:41:46.206Z,25.31
2022-08-29T20:46:38.998Z,25.28
2022-08-29T20:51:31.411Z,25.26
2022-08-29T20:56:23.971Z,25.24
2022-08-29T21:01:16.689Z,25.23
2022-08-29T21:06:09.206Z,25.17
2022-08-29T21:11:01.991Z,25.11
2022-08-29T21:15:54.614Z,25.12
2022-08-29T21:20:53.430Z,25.11
2022-08-29T21:25:39.717Z,25.14
2022-08-29T21:30:32.459Z,25.13
2022-08-29T21:35:24.863Z,25.08
2022-08-29T21:40:17.572Z,25.03
2022-08-29T21:45:10.202Z,25.03
2022-08-29T21:50:02.602Z,25.04
2022-08-29T21:54:55.143Z,24.98
2022-08-29T21:59:47.465Z,24.94
2022-08-29T22:04:39.970Z,24.96
2022-08-29T22:09:32.546Z,24.92
2022-08-29T22:14:25.067Z,24.97
2022-08-29T22:19:17.538Z,24.9
2022-08-29T22:24:09.920Z,24.91
2022-08-29T22:29:02.407Z,24.89
2022-08-29T22:33:55.069Z,24.86
2022-08-29T22:38:47.707Z,24.83
2022-08-29T22:43:40.420Z,24.82
2022-08-29T22:53:25.179Z,24.79
2022-08-29T22:58:17.704Z,24.78
2022-08-29T23:03:10.245Z,24.73
2022-08-29T23:08:02.620Z,24.71
2022-08-29T23:12:55.099Z,24.7
2022-08-29T23:17:47.802Z,24.68
2022-08-29T23:22:41.030Z,24.66
2022-08-29T23:27:32.851Z,24.66
2022-08-29T23:32:25.297Z,24.61
2022-08-29T23:37:17.980Z,24.63
2022-08-29T23:42:10.466Z,24.61
2022-08-29T23:47:02.979Z,24.58
2022-08-29T23:51:55.428Z,24.58
2022-08-29T23:56:48.000Z,24.58
